Time;durP1;ratioP1;P1;durP2;ratioP2;P2;SDS_P1;SDS_P2;PMS_P1;PMS_P2;Temp;Humidity;BMP_temperature;BMP_pressure;BME280_temperature;BME280_humidity;BME280_pressure;Samples;Min_cycle;Max_cycle;Signal;HPM_P1;HPM_P2
2021/04/17 00:02:07;;;;;;;9.55;6.72;;;5.30;99.90;;;;;;5032418;28;20022;-71
2021/04/17 00:04:33;;;;;;;8.82;7.93;;;5.20;99.90;;;;;;5028722;28;20053;-71
2021/04/17 00:06:59;;;;;;;8.57;7.78;;;5.10;99.90;;;;;;5023724;28;20455;-70
2021/04/17 00:09:27;;;;;;;8.15;7.45;;;5.00;99.90;;;;;;5027964;28;20037;-70
2021/04/17 00:11:56;;;;;;;8.18;7.40;;;4.90;99.90;;;;;;5021899;28;20392;-69
2021/04/17 00:14:27;;;;;;;7.65;6.95;;;4.90;99.90;;;;;;5015231;28;20033;-70
2021/04/17 00:16:53;;;;;;;;;;;4.80;99.90;;;;;;5024023;28;20022;-69
2021/04/17 00:19:19;;;;;;;8.70;7.80;;;4.80;99.90;;;;;;5025576;28;19920;-69
2021/04/17 00:21:44;;;;;;;7.82;7.03;;;4.80;99.90;;;;;;5028941;28;20088;-69
2021/04/17 00:24:10;;;;;;;8.95;8.05;;;4.70;99.90;;;;;;5016713;28;20077;-70
2021/04/17 00:26:35;;;;;;;8.50;7.60;;;4.80;99.90;;;;;;5027632;28;20021;-70
2021/04/17 00:29:03;;;;;;;7.88;7.18;;;4.80;99.90;;;;;;5033221;28;20275;-70
2021/04/17 00:31:30;;;;;;;8.77;7.97;;;4.80;99.90;;;;;;5018581;28;20081;-70
2021/04/17 00:33:55;;;;;;;8.82;7.95;;;4.80;99.90;;;;;;5026817;28;20061;-69
2021/04/17 00:36:21;;;;;;;8.90;8.02;;;4.80;99.90;;;;;;5028574;28;20057;-70
2021/04/17 00:38:47;;;;;;;8.52;7.72;;;4.80;99.90;;;;;;5034147;28;20029;-70
2021/04/17 00:41:12;;;;;;;9.00;8.20;;;4.80;99.90;;;;;;5032882;28;20021;-69
2021/04/17 00:43:38;;;;;;;8.52;7.68;;;4.80;99.90;;;;;;5033761;28;20029;-69
2021/04/17 00:46:04;;;;;;;7.82;7.13;;;4.90;99.90;;;;;;5032178;28;20385;-69
2021/04/17 00:48:29;;;;;;;11.35;8.60;;;4.90;99.90;;;;;;5033761;28;20041;-69
2021/04/17 00:50:55;;;;;;;9.35;8.45;;;4.90;99.90;;;;;;5034466;28;20443;-70
2021/04/17 00:53:21;;;;;;;10.20;9.20;;;4.90;99.90;;;;;;5029679;28;20056;-70
2021/04/17 00:55:46;;;;;;;10.40;8.48;;;4.80;99.90;;;;;;5031552;28;20495;-69
2021/04/17 00:58:12;;;;;;;9.52;8.63;;;4.80;99.90;;;;;;5033855;28;20040;-71
2021/04/17 01:00:38;;;;;;;9.70;8.70;;;4.80;99.90;;;;;;5028190;28;20311;-69
2021/04/17 01:03:41;;;;;;;9.23;8.30;;;4.80;99.90;;;;;;5034343;28;20025;-68
2021/04/17 01:06:22;;;;;;;8.60;7.60;;;4.80;99.90;;;;;;5030724;28;20095;-68
2021/04/17 01:08:55;;;;;;;8.68;7.85;;;4.90;99.90;;;;;;5031855;28;20044;-69
2021/04/17 01:11:27;;;;;;;10.77;8.05;;;4.80;99.90;;;;;;5018024;28;20041;-69
2021/04/17 01:13:55;;;;;;;8.82;8.02;;;4.80;99.90;;;;;;5028970;28;20057;-70
2021/04/17 01:16:21;;;;;;;11.15;9.32;;;4.80;99.90;;;;;;5033663;28;20022;-69
2021/04/17 01:18:48;;;;;;;10.52;9.52;;;4.80;99.90;;;;;;5032634;28;20025;-71
2021/04/17 01:21:16;;;;;;;9.52;8.52;;;4.90;99.90;;;;;;5032794;28;20041;-69
2021/04/17 01:23:50;;;;;;;9.18;8.27;;;5.10;99.90;;;;;;5030614;28;20017;-69
2021/04/17 01:26:22;;;;;;;10.18;8.88;;;5.30;99.90;;;;;;5032341;28;20025;-68
2021/04/17 01:28:51;;;;;;;9.52;8.57;;;5.40;99.90;;;;;;5028907;28;20485;-69
2021/04/17 01:31:19;;;;;;;9.98;8.98;;;5.20;99.90;;;;;;5031634;28;20033;-69
2021/04/17 01:33:50;;;;;;;8.95;8.15;;;5.10;99.90;;;;;;5025861;28;20497;-72
2021/04/17 01:36:17;;;;;;;10.00;8.45;;;5.00;99.90;;;;;;5030719;28;20040;-69
2021/04/17 01:38:47;;;;;;;9.63;8.65;;;4.90;99.90;;;;;;5030518;28;20048;-69
2021/04/17 01:41:17;;;;;;;10.85;8.63;;;4.80;99.90;;;;;;5024881;28;20030;-71
2021/04/17 01:43:46;;;;;;;9.48;8.57;;;4.80;99.90;;;;;;5031533;28;20029;-69
2021/04/17 01:46:16;;;;;;;8.82;7.95;;;4.70;99.90;;;;;;5024949;28;20036;-70
2021/04/17 01:48:44;;;;;;;9.27;8.35;;;4.60;99.90;;;;;;5022559;28;20100;-69
2021/04/17 01:51:10;;;;;;;9.70;8.73;;;4.50;99.90;;;;;;5044829;28;20516;-70
2021/04/17 01:53:38;;;;;;;9.60;8.70;;;4.40;99.90;;;;;;5025962;28;20038;-69
2021/04/17 01:56:06;;;;;;;8.88;7.97;;;4.30;99.90;;;;;;5024098;28;20544;-69
2021/04/17 01:58:36;;;;;;;9.43;8.20;;;4.30;99.90;;;;;;5034487;28;20032;-69
2021/04/17 02:01:03;;;;;;;9.53;8.53;;;4.30;99.90;;;;;;5034573;28;20037;-69
2021/04/17 02:03:28;;;;;;;9.18;8.27;;;4.30;99.90;;;;;;5027732;28;20033;-69
2021/04/17 02:05:56;;;;;;;10.55;9.07;;;4.20;99.90;;;;;;5031448;28;20033;-69
2021/04/17 02:08:22;;;;;;;10.23;9.15;;;4.20;99.90;;;;;;5028726;28;20103;-69
2021/04/17 02:10:49;;;;;;;10.93;9.48;;;4.20;99.90;;;;;;5028808;28;20029;-70
2021/04/17 02:13:16;;;;;;;9.85;8.85;;;4.20;99.90;;;;;;5030501;28;20025;-69
2021/04/17 02:15:43;;;;;;;10.93;9.85;;;4.20;99.90;;;;;;5022116;28;20053;-70
2021/04/17 02:18:18;;;;;;;12.32;9.32;;;4.20;99.90;;;;;;5031713;28;20041;-70
2021/04/17 02:20:50;;;;;;;13.23;10.25;;;4.20;99.90;;;;;;5030406;28;20021;-69
2021/04/17 02:23:16;;;;;;;10.43;9.32;;;4.20;99.90;;;;;;5025854;28;20032;-69
2021/04/17 02:25:42;;;;;;;13.60;9.32;;;4.10;99.90;;;;;;5030505;28;20080;-69
2021/04/17 02:28:08;;;;;;;9.95;8.82;;;4.10;99.90;;;;;;5025370;28;20026;-70
2021/04/17 02:30:38;;;;;;;10.95;9.93;;;4.10;99.90;;;;;;5032290;28;20025;-68
2021/04/17 02:33:04;;;;;;;9.98;8.98;;;4.20;99.90;;;;;;5062767;22;20580;-70
2021/04/17 02:35:29;;;;;;;12.23;9.80;;;4.30;99.90;;;;;;5057972;28;20047;-71
2021/04/17 02:37:55;;;;;;;10.15;8.88;;;4.30;99.90;;;;;;5057157;28;20464;-71
2021/04/17 02:40:20;;;;;;;10.27;8.95;;;4.30;99.90;;;;;;5057613;28;20496;-70
2021/04/17 02:42:46;;;;;;;11.02;9.35;;;4.30;99.90;;;;;;5071387;28;20052;-71
2021/04/17 02:45:12;;;;;;;10.15;9.20;;;4.30;99.90;;;;;;5064562;28;20494;-70
2021/04/17 02:47:38;;;;;;;12.07;9.63;;;4.30;99.90;;;;;;5059131;28;20056;-71
2021/04/17 02:50:04;;;;;;;9.57;8.60;;;4.40;99.90;;;;;;5052413;28;20112;-71
2021/04/17 02:52:29;;;;;;;10.25;9.35;;;4.60;99.90;;;;;;5061012;28;20036;-71
2021/04/17 02:54:55;;;;;;;11.93;9.05;;;4.80;99.90;;;;;;5053071;28;20025;-71
2021/04/17 02:57:21;;;;;;;10.43;9.43;;;4.60;99.90;;;;;;5050293;28;20404;-72
2021/04/17 02:59:46;;;;;;;10.45;9.35;;;4.60;99.90;;;;;;5049831;28;20444;-71
2021/04/17 03:02:13;;;;;;;11.13;10.02;;;4.50;99.90;;;;;;5051978;28;20028;-70
2021/04/17 03:04:39;;;;;;;13.63;10.60;;;4.40;99.90;;;;;;5047032;28;20017;-71
2021/04/17 03:07:05;;;;;;;11.10;9.82;;;4.50;99.90;;;;;;5051357;28;20171;-71
2021/04/17 03:09:30;;;;;;;11.23;10.15;;;4.40;99.90;;;;;;5039464;28;20026;-71
2021/04/17 03:11:56;;;;;;;11.32;10.27;;;4.40;99.90;;;;;;5043917;28;20100;-70
2021/04/17 03:14:21;;;;;;;12.10;10.82;;;4.40;99.90;;;;;;5046420;28;20056;-71
2021/04/17 03:16:47;;;;;;;11.43;10.32;;;4.40;99.90;;;;;;5041314;28;20024;-71
2021/04/17 03:19:12;;;;;;;11.30;10.27;;;4.40;99.90;;;;;;5040616;28;20021;-70
2021/04/17 03:21:38;;;;;;;10.55;9.55;;;4.50;99.90;;;;;;5050072;28;20484;-71
2021/04/17 03:24:04;;;;;;;10.82;9.82;;;4.60;99.90;;;;;;5046016;28;20083;-71
2021/04/17 03:26:30;;;;;;;11.23;10.07;;;4.60;99.90;;;;;;5049013;28;20029;-70
2021/04/17 03:28:55;;;;;;;11.27;10.10;;;4.60;99.90;;;;;;5045465;28;20044;-71
2021/04/17 03:31:21;;;;;;;10.77;9.57;;;4.60;99.90;;;;;;5048263;28;20025;-71
2021/04/17 03:33:47;;;;;;;11.35;10.23;;;4.50;99.90;;;;;;5052971;28;20029;-70
2021/04/17 03:36:12;;;;;;;13.98;11.68;;;4.50;99.90;;;;;;5045361;28;20480;-71
2021/04/17 03:38:38;;;;;;;10.95;9.85;;;4.50;99.90;;;;;;5057290;28;20043;-70
2021/04/17 03:41:04;;;;;;;10.80;9.80;;;4.50;99.90;;;;;;5041035;28;20029;-71
2021/04/17 03:43:30;;;;;;;11.63;10.43;;;4.40;99.90;;;;;;5038048;28;20059;-71
2021/04/17 03:45:55;;;;;;;13.45;11.60;;;4.30;99.90;;;;;;5054040;28;20078;-71
2021/04/17 03:48:21;;;;;;;12.70;11.43;;;4.30;99.90;;;;;;5037838;28;20030;-71
2021/04/17 03:50:47;;;;;;;12.35;10.63;;;4.30;99.90;;;;;;5040956;28;20539;-70
2021/04/17 03:53:13;;;;;;;12.75;11.63;;;4.30;99.90;;;;;;5047026;28;20027;-71
2021/04/17 03:55:38;;;;;;;12.32;11.13;;;4.30;99.90;;;;;;5045970;28;20097;-71
2021/04/17 03:58:04;;;;;;;12.60;11.50;;;4.30;99.90;;;;;;5043457;28;20100;-71
2021/04/17 04:00:29;;;;;;;12.57;11.13;;;4.20;99.90;;;;;;5041169;28;20036;-71
2021/04/17 04:02:56;;;;;;;11.27;10.18;;;4.10;99.90;;;;;;5048267;28;20025;-71
2021/04/17 04:05:21;;;;;;;12.50;11.30;;;4.10;99.90;;;;;;5051991;28;20397;-71
2021/04/17 04:07:47;;;;;;;12.48;11.20;;;4.00;99.90;;;;;;5041496;28;20024;-71
2021/04/17 04:10:14;;;;;;;14.23;11.45;;;4.00;99.90;;;;;;5055013;28;20037;-70
2021/04/17 04:12:42;;;;;;;13.50;11.73;;;4.10;99.90;;;;;;5061243;28;20017;-71
2021/04/17 04:15:09;;;;;;;13.52;11.00;;;4.10;99.90;;;;;;5048426;28;20025;-71
2021/04/17 04:17:34;;;;;;;12.40;11.10;;;4.10;99.90;;;;;;5059058;28;20495;-71
2021/04/17 04:20:00;;;;;;;11.82;10.73;;;4.10;99.90;;;;;;5057031;28;20033;-70
2021/04/17 04:22:26;;;;;;;13.20;11.90;;;4.10;99.90;;;;;;5038483;28;20061;-71
2021/04/17 04:24:52;;;;;;;12.75;11.63;;;4.20;99.90;;;;;;5042477;28;20499;-72
2021/04/17 04:27:17;;;;;;;12.23;11.10;;;4.20;99.90;;;;;;5041532;28;20029;-71
2021/04/17 04:29:43;;;;;;;14.48;12.38;;;4.20;99.90;;;;;;5047228;28;20488;-71
2021/04/17 04:32:09;;;;;;;16.02;12.88;;;4.20;99.90;;;;;;5046283;28;20029;-71
2021/04/17 04:34:34;;;;;;;11.68;10.57;;;4.20;99.90;;;;;;5047832;28;20112;-71
2021/04/17 04:37:00;;;;;;;15.05;11.50;;;4.20;99.90;;;;;;5051385;28;20205;-71
2021/04/17 04:39:25;;;;;;;13.60;12.18;;;4.20;99.90;;;;;;5054828;28;20036;-71
2021/04/17 04:41:51;;;;;;;18.00;12.85;;;4.30;99.90;;;;;;5044816;28;20475;-72
2021/04/17 04:44:16;;;;;;;13.90;12.02;;;4.30;99.90;;;;;;5047548;28;20021;-71
2021/04/17 04:46:42;;;;;;;15.35;12.68;;;4.30;99.90;;;;;;5050291;28;20074;-72
2021/04/17 04:49:08;;;;;;;13.35;12.05;;;4.30;99.90;;;;;;5053020;28;20025;-71
2021/04/17 04:51:33;;;;;;;15.23;13.10;;;4.30;99.90;;;;;;5068256;28;20111;-72
2021/04/17 04:53:59;;;;;;;14.45;12.35;;;4.30;99.90;;;;;;5061706;28;20105;-72
2021/04/17 04:56:25;;;;;;;14.07;12.40;;;4.30;99.90;;;;;;5048770;28;20452;-71
2021/04/17 04:58:50;;;;;;;14.30;12.77;;;4.30;99.90;;;;;;5048697;28;20037;-71
2021/04/17 05:01:16;;;;;;;17.23;12.75;;;4.30;99.90;;;;;;5041412;28;20022;-71
2021/04/17 05:03:42;;;;;;;15.85;13.32;;;4.30;99.90;;;;;;5041683;28;20024;-72
2021/04/17 05:06:07;;;;;;;16.38;12.98;;;4.40;99.90;;;;;;5052855;28;20036;-72
2021/04/17 05:08:33;;;;;;;18.63;12.77;;;4.40;99.90;;;;;;5054118;28;20029;-73
2021/04/17 05:10:59;;;;;;;16.13;13.27;;;4.40;99.90;;;;;;5052578;28;20028;-71
2021/04/17 05:13:24;;;;;;;15.43;13.85;;;4.40;99.90;;;;;;5050653;28;20404;-72
2021/04/17 05:15:50;;;;;;;14.80;13.30;;;4.50;99.90;;;;;;5048933;28;20033;-71
2021/04/17 05:18:15;;;;;;;15.18;13.65;;;4.60;99.90;;;;;;5055794;28;20041;-70
2021/04/17 05:20:41;;;;;;;16.85;12.73;;;4.60;99.90;;;;;;5053724;28;20024;-71
2021/04/17 05:23:06;;;;;;;13.90;12.55;;;4.70;99.90;;;;;;5056061;28;20036;-71
2021/04/17 05:25:32;;;;;;;14.68;13.18;;;4.70;99.90;;;;;;5051288;28;20070;-72
2021/04/17 05:27:57;;;;;;;16.25;13.48;;;4.70;99.90;;;;;;5051426;28;20037;-73
2021/04/17 05:30:23;;;;;;;15.70;13.40;;;4.80;99.90;;;;;;5045961;28;20120;-72
2021/04/17 05:32:49;;;;;;;15.15;12.07;;;4.80;99.90;;;;;;5045531;28;20029;-72
2021/04/17 05:35:15;;;;;;;14.07;12.68;;;5.00;99.90;;;;;;5052211;28;20088;-71
2021/04/17 05:37:40;;;;;;;15.43;13.35;;;5.20;99.90;;;;;;5050137;28;20024;-72
2021/04/17 05:40:07;;;;;;;14.38;12.98;;;5.40;99.90;;;;;;5051752;28;20040;-73
2021/04/17 05:42:32;;;;;;;14.10;12.70;;;5.20;99.90;;;;;;5042464;28;20030;-70
2021/04/17 05:44:58;;;;;;;21.33;14.10;;;5.20;99.90;;;;;;5041497;28;20499;-71
2021/04/17 05:47:23;;;;;;;14.02;12.55;;;5.20;99.90;;;;;;5050244;28;20477;-72
2021/04/17 05:49:49;;;;;;;15.52;13.68;;;5.20;99.90;;;;;;5050604;28;20036;-71
2021/04/17 05:52:15;;;;;;;14.10;12.82;;;5.10;99.90;;;;;;5047322;28;20420;-70
2021/04/17 05:54:40;;;;;;;18.90;13.48;;;5.20;99.90;;;;;;5047225;28;20388;-71
2021/04/17 05:57:06;;;;;;;14.65;13.05;;;5.20;99.90;;;;;;5044950;28;20025;-72
2021/04/17 05:59:32;;;;;;;14.50;12.98;;;5.30;99.90;;;;;;5049345;28;20017;-72
2021/04/17 06:01:57;;;;;;;14.63;12.82;;;5.30;99.90;;;;;;5052167;28;20025;-71
2021/04/17 06:04:23;;;;;;;15.60;13.75;;;5.40;99.90;;;;;;5048783;28;20021;-71
2021/04/17 06:06:48;;;;;;;13.98;12.63;;;5.30;99.90;;;;;;5037728;28;20401;-71
2021/04/17 06:09:14;;;;;;;15.52;12.60;;;5.30;99.90;;;;;;5046741;28;20100;-72
2021/04/17 06:11:40;;;;;;;16.33;13.85;;;5.30;99.90;;;;;;5041144;28;20451;-71
2021/04/17 06:14:06;;;;;;;14.90;13.50;;;5.40;99.90;;;;;;5048113;28;20121;-71
2021/04/17 06:16:32;;;;;;;15.27;13.77;;;5.40;99.90;;;;;;5051864;28;20048;-73
2021/04/17 06:18:58;;;;;;;13.73;12.43;;;5.40;99.90;;;;;;5043924;28;20021;-72
2021/04/17 06:21:23;;;;;;;13.95;12.45;;;5.50;99.90;;;;;;5047025;28;20025;-71
2021/04/17 06:23:49;;;;;;;14.32;12.82;;;5.50;99.90;;;;;;5043499;28;20025;-71
2021/04/17 06:26:14;;;;;;;13.60;12.30;;;5.70;99.90;;;;;;5051249;28;20028;-71
2021/04/17 06:28:40;;;;;;;16.33;12.90;;;5.60;99.90;;;;;;5052882;28;20152;-72
2021/04/17 06:31:05;;;;;;;16.55;12.63;;;5.70;99.90;;;;;;5052688;28;20048;-72
2021/04/17 06:33:32;;;;;;;14.40;12.45;;;5.90;99.90;;;;;;5060898;28;20311;-69
2021/04/17 06:35:58;;;;;;;14.50;12.65;;;6.00;99.90;;;;;;5070219;28;20021;-70
2021/04/17 06:38:24;;;;;;;15.10;13.57;;;6.00;99.90;;;;;;5064471;28;20041;-70
2021/04/17 06:40:50;;;;;;;15.80;13.80;;;6.00;99.90;;;;;;5050558;28;20087;-70
2021/04/17 06:43:20;;;;;;;18.08;13.20;;;6.10;99.90;;;;;;5050176;28;20029;-70
2021/04/17 06:45:46;;;;;;;13.32;12.02;;;6.50;99.90;;;;;;5055196;28;20052;-71
2021/04/17 06:48:16;;;;;;;15.27;13.60;;;6.40;99.90;;;;;;5050128;28;20424;-71
2021/04/17 06:50:42;;;;;;;16.30;12.85;;;6.50;99.90;;;;;;5052686;28;20032;-72
2021/04/17 06:53:09;;;;;;;14.20;12.75;;;6.50;99.90;;;;;;5051024;28;20025;-71
2021/04/17 06:55:36;;;;;;;15.10;13.50;;;7.00;84.60;;;;;;5045304;28;20025;-71
2021/04/17 06:58:03;;;;;;;14.07;12.63;;;7.00;48.90;;;;;;5046903;28;20070;-71
2021/04/17 07:00:28;;;;;;;13.73;11.73;;;7.20;26.30;;;;;;5048269;28;20022;-71
2021/04/17 07:02:54;;;;;;;16.52;12.98;;;7.30;1.00;;;;;;5057262;28;20027;-70
2021/04/17 07:05:20;;;;;;;14.27;12.77;;;7.60;1.00;;;;;;5058570;28;20047;-71
2021/04/17 07:07:46;;;;;;;13.38;11.98;;;8.10;1.00;;;;;;5055854;28;20044;-71
2021/04/17 07:10:13;;;;;;;12.13;11.02;;;8.40;99.90;;;;;;5055169;28;20032;-71
2021/04/17 07:12:39;;;;;;;17.58;12.48;;;8.10;99.90;;;;;;5059164;28;20021;-71
2021/04/17 07:15:07;;;;;;;13.73;12.20;;;8.00;99.90;;;;;;5057305;28;20032;-72
2021/04/17 07:17:35;;;;;;;14.38;12.98;;;7.80;99.90;;;;;;5048872;28;20191;-71
2021/04/17 07:20:16;;;;;;;15.43;12.60;;;7.60;1.00;;;;;;5054430;28;20354;-71
2021/04/17 07:22:42;;;;;;;14.25;12.70;;;7.90;1.00;;;;;;5065543;28;20095;-71
2021/04/17 07:25:08;;;;;;;14.32;12.93;;;8.00;1.00;;;;;;5056942;28;20040;-71
2021/04/17 07:27:40;;;;;;;17.25;12.85;;;8.10;1.00;;;;;;5059939;28;20024;-71
2021/04/17 07:30:15;;;;;;;14.13;12.82;;;8.00;99.90;;;;;;5058240;28;20033;-71
2021/04/17 07:33:13;;;;;;;12.65;11.10;;;8.30;1.00;;;;;;5061743;28;20032;-71
2021/04/17 07:35:43;;;;;;;12.35;11.02;;;8.60;99.90;;;;;;5041210;28;20068;-71
2021/04/17 07:38:12;;;;;;;12.45;11.23;;;8.90;1.00;;;;;;5051677;28;20022;-72
2021/04/17 07:40:38;;;;;;;11.82;10.63;;;8.60;1.00;;;;;;5056674;28;20025;-71
2021/04/17 07:43:04;;;;;;;14.38;12.65;;;8.70;53.00;;;;;;5047291;28;20025;-72
2021/04/17 07:45:35;;;;;;;15.63;11.80;;;8.90;29.00;;;;;;5050411;28;20025;-71
2021/04/17 07:48:17;;;;;;;;;;;9.00;82.30;;;;;;5042701;28;20022;-72
2021/04/17 07:50:43;;;;;;;12.20;11.00;;;9.00;1.00;;;;;;5056016;28;19909;-71
2021/04/17 07:53:33;;;;;;;13.10;11.23;;;9.10;1.00;;;;;;5055816;28;20036;-71
2021/04/17 07:56:33;;;;;;;12.23;10.95;;;9.30;99.90;;;;;;5053566;28;20041;-72
2021/04/17 07:59:05;;;;;;;12.90;10.77;;;9.60;82.30;;;;;;5056189;28;20029;-72
2021/04/17 08:01:33;;;;;;;13.15;10.95;;;9.50;99.90;;;;;;5057805;28;20029;-71
2021/04/17 08:04:00;;;;;;;13.07;9.65;;;9.30;1.00;;;;;;5061867;28;20024;-71
2021/04/17 08:06:27;;;;;;;11.25;10.15;;;9.10;99.90;;;;;;5064848;28;20085;-71
2021/04/17 08:08:54;;;;;;;10.95;9.88;;;9.00;99.90;;;;;;5051988;28;20427;-71
2021/04/17 08:11:21;;;;;;;12.30;10.57;;;9.00;99.90;;;;;;5059182;28;20026;-72
2021/04/17 08:13:49;;;;;;;13.93;9.55;;;9.00;1.00;;;;;;5056854;28;20025;-71
2021/04/17 08:16:18;;;;;;;13.13;10.48;;;9.60;99.90;;;;;;5059401;28;20045;-71
2021/04/17 08:18:45;;;;;;;11.35;9.45;;;9.90;1.00;;;;;;5057677;28;20029;-71
2021/04/17 08:21:13;;;;;;;10.70;9.60;;;9.80;99.90;;;;;;5049878;28;20384;-71
2021/04/17 08:23:43;;;;;;;14.82;10.30;;;9.90;1.00;;;;;;5057745;28;20031;-72
2021/04/17 08:26:09;;;;;;;9.87;8.83;;;9.60;28.40;;;;;;5068112;28;20080;-71
2021/04/17 08:28:43;;;;;;;10.45;9.55;;;9.40;99.90;;;;;;5063580;28;20036;-72
2021/04/17 08:31:24;;;;;;;10.93;9.88;;;9.30;99.90;;;;;;5053924;28;20079;-72
2021/04/17 08:34:06;;;;;;;11.43;9.57;;;9.20;85.90;;;;;;5067502;23;20464;-70
2021/04/17 08:36:37;;;;;;;10.52;9.48;;;9.50;1.00;;;;;;5033676;28;20030;-70
2021/04/17 08:39:06;;;;;;;12.32;9.48;;;9.30;1.00;;;;;;5029453;28;20112;-70
2021/04/17 08:41:44;;;;;;;10.57;9.57;;;9.20;99.90;;;;;;5037523;28;20074;-70
2021/04/17 08:44:23;;;;;;;10.57;9.45;;;9.40;97.80;;;;;;5034004;28;20108;-70
2021/04/17 08:46:48;;;;;;;8.75;7.85;;;9.50;99.90;;;;;;5031003;28;20025;-71
2021/04/17 08:49:29;;;;;;;9.48;7.78;;;10.00;1.00;;;;;;5035589;28;20030;-71
2021/04/17 08:52:21;;;;;;;8.82;7.93;;;10.30;99.90;;;;;;5033072;28;20112;-72
2021/04/17 08:55:02;;;;;;;8.57;7.70;;;10.60;99.90;;;;;;5026102;28;20022;-70
2021/04/17 08:57:28;;;;;;;9.50;8.48;;;10.30;1.00;;;;;;5026119;28;20029;-69
2021/04/17 08:59:58;;;;;;;10.38;9.18;;;10.50;1.00;;;;;;5029588;28;20444;-70
2021/04/17 09:02:26;;;;;;;9.95;8.95;;;10.20;1.00;;;;;;5032460;28;20089;-69
2021/04/17 09:05:13;;;;;;;12.18;8.70;;;10.20;1.00;;;;;;5029514;28;20025;-71
2021/04/17 09:07:45;;;;;;;12.07;8.25;;;10.30;36.80;;;;;;5027805;28;20029;-70
2021/04/17 09:10:23;;;;;;;12.93;9.15;;;11.10;99.90;;;;;;5031066;28;20401;-72
2021/04/17 09:13:13;;;;;;;9.48;8.57;;;11.40;99.90;;;;;;5025056;28;20026;-72
2021/04/17 09:15:57;;;;;;;12.82;8.57;;;11.00;1.00;;;;;;5024901;28;20022;-74
2021/04/17 09:21:06;;;;;;;9.75;8.70;;;10.80;99.90;;;;;;5032473;28;20021;-74
2021/04/17 09:23:41;;;;;;;11.40;7.68;;;10.70;99.90;;;;;;5029542;28;20025;-73
2021/04/17 09:26:08;;;;;;;7.63;6.93;;;11.00;1.00;;;;;;5024379;28;20026;-73
2021/04/17 09:28:38;;;;;;;8.13;7.35;;;11.20;99.90;;;;;;5027418;28;20458;-73
2021/04/17 09:31:06;;;;;;;8.02;7.20;;;11.40;99.90;;;;;;5033894;28;20389;-73
2021/04/17 09:33:32;;;;;;;9.55;7.13;;;11.40;99.90;;;;;;5036088;28;20033;-73
2021/04/17 09:35:58;;;;;;;8.00;7.03;;;10.90;99.90;;;;;;5040631;28;20397;-74
2021/04/17 09:38:33;;;;;;;7.18;6.47;;;10.90;99.90;;;;;;5040827;28;20503;-73
2021/04/17 09:40:59;;;;;;;7.63;6.40;;;10.40;99.90;;;;;;5040822;28;20033;-73
2021/04/17 09:43:35;;;;;;;8.60;6.03;;;10.40;99.90;;;;;;5015796;28;20038;-73
2021/04/17 09:46:17;;;;;;;7.85;6.97;;;10.30;99.90;;;;;;5037121;28;20465;-73
2021/04/17 09:48:44;;;;;;;11.57;7.15;;;10.80;99.90;;;;;;5036877;28;20497;-76
2021/04/17 09:51:28;;;;;;;8.73;6.20;;;11.10;99.90;;;;;;5033995;28;20120;-74
2021/04/17 09:54:00;;;;;;;7.65;6.80;;;11.00;99.90;;;;;;5034563;28;20025;-73
2021/04/17 09:56:32;;;;;;;6.70;5.78;;;11.10;90.00;;;;;;5033785;28;20095;-74
2021/04/17 09:59:06;;;;;;;6.18;5.57;;;11.40;1.00;;;;;;5032934;28;20087;-73
2021/04/17 10:01:32;;;;;;;6.65;5.93;;;10.80;1.00;;;;;;5016200;28;20017;-73
2021/04/17 10:04:00;;;;;;;6.72;5.85;;;10.90;24.60;;;;;;5030537;28;20473;-74
2021/04/17 10:06:30;;;;;;;6.25;5.65;;;11.20;1.00;;;;;;5033711;28;20099;-73
2021/04/17 10:09:06;;;;;;;6.53;5.75;;;11.70;1.00;;;;;;5028141;28;20021;-71
2021/04/17 10:11:32;;;;;;;9.50;7.05;;;11.50;1.00;;;;;;5032027;28;20033;-73
2021/04/17 10:13:58;;;;;;;9.07;5.95;;;10.80;1.00;;;;;;5033865;28;20068;-73
2021/04/17 10:16:35;;;;;;;8.32;5.13;;;11.20;1.00;;;;;;5034464;28;20021;-75
2021/04/17 10:19:08;;;;;;;6.82;5.95;;;10.90;1.00;;;;;;5028045;28;20040;-74
2021/04/17 10:21:35;;;;;;;6.15;4.88;;;10.90;1.00;;;;;;5034731;28;20022;-76
2021/04/17 10:24:19;;;;;;;6.55;5.22;;;11.10;1.00;;;;;;5033930;28;20022;-75
2021/04/17 10:26:54;;;;;;;7.90;5.47;;;11.90;99.90;;;;;;5032745;28;20504;-74
2021/04/17 10:29:30;;;;;;;6.55;5.07;;;12.10;99.90;;;;;;5026739;28;20128;-74
2021/04/17 10:32:16;;;;;;;6.40;5.47;;;11.70;99.90;;;;;;5032620;28;20389;-74
2021/04/17 10:34:44;;;;;;;6.20;5.03;;;10.80;99.90;;;;;;5029475;28;20041;-74
2021/04/17 10:37:22;;;;;;;6.10;5.50;;;11.10;99.90;;;;;;5031199;28;20084;-75
2021/04/17 10:40:02;;;;;;;5.72;5.10;;;11.30;99.90;;;;;;5032390;28;20165;-73
2021/04/17 10:42:49;;;;;;;5.28;4.78;;;12.20;99.90;;;;;;5027345;28;20025;-74
2021/04/17 10:45:22;;;;;;;5.43;4.68;;;12.20;99.90;;;;;;5029258;28;20025;-74
2021/04/17 10:48:17;;;;;;;9.85;5.53;;;11.80;99.90;;;;;;5030916;28;20032;-74
2021/04/17 10:51:14;;;;;;;5.97;5.38;;;10.90;99.90;;;;;;5033846;28;20068;-74
2021/04/17 10:53:44;;;;;;;5.63;4.13;;;11.40;99.90;;;;;;5011935;28;20045;-73
2021/04/17 10:56:12;;;;;;;3.70;3.33;;;12.20;99.90;;;;;;5032642;28;20129;-72
2021/04/17 10:58:38;;;;;;;5.45;4.45;;;12.50;99.90;;;;;;5027931;28;20033;-74
2021/04/17 11:01:06;;;;;;;4.93;4.20;;;12.10;99.90;;;;;;5030311;28;20084;-73
2021/04/17 11:03:49;;;;;;;4.90;4.47;;;12.00;99.90;;;;;;5029031;28;20489;-74
2021/04/17 11:06:17;;;;;;;5.10;4.32;;;12.50;99.90;;;;;;5033340;28;20027;-73
2021/04/17 11:08:44;;;;;;;6.10;4.40;;;12.70;99.90;;;;;;5031628;28;20060;-76
2021/04/17 11:11:15;;;;;;;4.75;4.35;;;12.90;99.90;;;;;;5033094;28;20104;-74
2021/04/17 11:13:43;;;;;;;6.57;4.22;;;13.00;99.90;;;;;;5031481;28;20034;-73
2021/04/17 11:16:11;;;;;;;8.20;4.03;;;12.90;99.90;;;;;;5031818;28;20025;-73
2021/04/17 11:18:41;;;;;;;9.38;4.30;;;12.90;99.90;;;;;;5032602;28;20025;-74
2021/04/17 11:21:10;;;;;;;3.83;3.53;;;12.80;99.90;;;;;;5026850;28;20048;-74
2021/04/17 11:23:43;;;;;;;6.35;3.53;;;12.60;99.90;;;;;;5031240;28;20281;-74
2021/04/17 11:26:15;;;;;;;4.15;3.67;;;12.60;99.90;;;;;;5034183;28;20048;-73
2021/04/17 11:28:49;;;;;;;4.85;3.55;;;13.00;99.90;;;;;;5033543;28;20025;-74
2021/04/17 11:31:18;;;;;;;5.15;4.07;;;12.90;99.90;;;;;;5026221;28;20032;-74
2021/04/17 11:33:45;;;;;;;5.32;3.72;;;12.70;99.90;;;;;;5031883;28;20033;-73
2021/04/17 11:36:11;;;;;;;6.78;3.85;;;11.90;99.90;;;;;;5021145;28;20033;-74
2021/04/17 11:38:37;;;;;;;3.97;3.47;;;12.10;99.90;;;;;;5026627;28;20065;-76
2021/04/17 11:41:03;;;;;;;3.85;3.45;;;12.20;99.90;;;;;;5029831;28;20041;-74
2021/04/17 11:43:28;;;;;;;4.28;3.22;;;12.50;99.90;;;;;;5019740;28;20025;-81
2021/04/17 11:45:56;;;;;;;4.20;3.47;;;13.10;99.90;;;;;;5035763;28;20026;-80
2021/04/17 11:48:22;;;;;;;4.13;3.58;;;13.00;99.90;;;;;;5023515;28;20029;-79
2021/04/17 11:50:48;;;;;;;3.97;3.58;;;13.40;99.90;;;;;;5034163;28;20028;-80
2021/04/17 11:53:16;;;;;;;2.70;2.50;;;13.80;99.90;;;;;;5037927;28;20084;-79
2021/04/17 11:55:42;;;;;;;3.50;3.20;;;13.70;99.50;;;;;;5028087;28;20033;-81
2021/04/17 11:58:07;;;;;;;4.00;3.60;;;13.80;99.90;;;;;;5038403;28;20021;-81
2021/04/17 12:00:33;;;;;;;6.57;3.88;;;13.90;97.90;;;;;;5043725;28;20080;-79
2021/04/17 12:02:59;;;;;;;3.83;3.35;;;13.70;98.90;;;;;;5040317;28;20083;-79
2021/04/17 12:05:26;;;;;;;5.55;3.40;;;13.40;98.70;;;;;;5034988;28;20184;-82
2021/04/17 12:07:52;;;;;;;3.42;2.83;;;13.40;93.60;;;;;;5046685;28;20029;-82
2021/04/17 12:10:18;;;;;;;3.67;3.15;;;13.50;90.20;;;;;;5037705;28;20037;-82
2021/04/17 12:12:44;;;;;;;4.57;3.38;;;13.70;92.40;;;;;;5046325;28;20025;-83
2021/04/17 12:15:11;;;;;;;4.47;3.22;;;13.40;92.10;;;;;;5048199;28;20026;-82
2021/04/17 12:17:36;;;;;;;4.35;3.10;;;13.20;93.00;;;;;;5045258;28;20026;-80
2021/04/17 12:20:02;;;;;;;4.13;3.72;;;13.20;92.10;;;;;;5040546;28;20030;-79
2021/04/17 12:22:29;;;;;;;7.43;4.10;;;13.20;92.20;;;;;;5043669;28;20049;-82
2021/04/17 12:24:54;;;;;;;7.53;2.83;;;13.50;87.00;;;;;;5025219;28;20029;-75
2021/04/17 12:27:20;;;;;;;4.50;3.08;;;13.60;81.70;;;;;;5036289;28;20032;-74
2021/04/17 12:29:46;;;;;;;5.18;2.80;;;13.40;81.10;;;;;;5036183;28;20027;-74
2021/04/17 12:32:12;;;;;;;4.68;3.00;;;13.50;80.50;;;;;;5036594;28;20029;-74
2021/04/17 12:34:37;;;;;;;3.63;2.80;;;13.50;79.60;;;;;;5032110;28;20029;-75
2021/04/17 12:37:03;;;;;;;3.35;3.03;;;13.60;79.30;;;;;;5036341;28;20029;-75
2021/04/17 12:39:29;;;;;;;4.15;2.80;;;13.60;71.90;;;;;;5036762;28;20444;-73
2021/04/17 12:41:55;;;;;;;3.55;2.88;;;13.60;65.00;;;;;;5029999;28;21619;-75
2021/04/17 12:44:20;;;;;;;3.08;2.50;;;13.80;62.80;;;;;;5035134;28;20025;-74
2021/04/17 12:46:47;;;;;;;2.92;2.63;;;13.60;61.70;;;;;;5035993;28;20099;-74
2021/04/17 12:49:13;;;;;;;2.40;2.20;;;13.20;56.20;;;;;;5035589;28;20029;-76
2021/04/17 12:51:38;;;;;;;2.90;2.50;;;12.80;57.10;;;;;;5037342;28;20042;-76
2021/04/17 12:54:05;;;;;;;3.63;3.17;;;12.90;60.40;;;;;;5022398;28;20044;-73
2021/04/17 12:56:30;;;;;;;3.38;3.03;;;13.00;58.40;;;;;;5023208;28;20043;-74